Time;durP1;ratioP1;P1;durP2;ratioP2;P2;SDS_P1;SDS_P2;PMS_P1;PMS_P2;Temp;Humidity;BMP_temperature;BMP_pressure;BME280_temperature;BME280_humidity;BME280_pressure;Samples;Min_cycle;Max_cycle;Signal;HPM_P1;HPM_P2
2022/10/21 00:00:28;;;;;;;;;;;;;;;21.40;65.30;100195.78;7283256;19;152346;-56
2022/10/21 00:02:54;;;;;;;;;;;;;;;21.39;65.62;100192.19;7280420;19;155114;-56
2022/10/21 00:05:22;;;;;;;;;;;;;;;21.42;65.62;100190.66;7279344;19;151867;-56
2022/10/21 00:07:49;;;;;;;;;;;;;;;21.42;65.19;100183.06;7281455;19;153142;-56
2022/10/21 00:10:15;;;;;;;;;;;;;;;21.41;65.30;100186.19;7281432;19;152386;-56
2022/10/21 00:12:42;;;;;;;;;;;;;;;21.41;65.41;100187.03;7276855;19;152005;-56
2022/10/21 00:15:09;;;;;;;;;;;;;;;21.42;65.29;100174.63;7282572;19;152005;-56
2022/10/21 00:17:37;;;;;;;;;;;;;;;21.43;65.40;100172.66;7279779;19;152792;-56
2022/10/21 00:20:04;;;;;;;;;;;;;;;21.41;65.03;100172.97;7289021;19;151967;-61
2022/10/21 00:22:31;;;;;;;;;;;;;;;21.42;65.50;100173.81;7279610;19;153466;-56
2022/10/21 00:24:58;;;;;;;;;;;;;;;21.42;65.23;100171.00;7280925;19;151570;-56
2022/10/21 00:27:24;;;;;;;;;;;;;;;21.41;65.42;100180.59;7277871;19;153445;-57
2022/10/21 00:29:51;;;;;;;;;;;;;;;21.42;65.02;100176.63;7279129;19;154103;-56
2022/10/21 00:32:18;;;;;;;;;;;;;;;21.42;65.24;100176.63;7279669;19;151905;-56
2022/10/21 00:34:45;;;;;;;;;;;;;;;21.42;65.43;100174.63;7281757;19;154184;-56
2022/10/21 00:37:13;;;;;;;;;;;;;;;21.42;65.33;100179.44;7277097;19;153161;-56
2022/10/21 00:39:39;;;;;;;;;;;;;;;21.42;65.12;100183.06;7295737;19;151879;-56
2022/10/21 00:42:12;;;;;;;;;;;;;;;21.43;65.39;100195.13;7282959;19;154225;-56
2022/10/21 00:44:39;;;;;;;;;;;;;;;21.42;65.20;100188.69;7288275;19;151717;-56
2022/10/21 00:47:12;;;;;;;;;;;;;;;21.42;65.42;100187.84;7287097;19;154709;-56
2022/10/21 00:49:40;;;;;;;;;;;;;;;21.41;65.26;100192.66;7286413;19;153975;-56
2022/10/21 00:52:09;;;;;;;;;;;;;;;21.42;65.47;100183.06;7287520;19;152815;-56
2022/10/21 00:54:37;;;;;;;;;;;;;;;21.42;65.04;100171.00;7285177;19;153221;-56
2022/10/21 00:57:03;;;;;;;;;;;;;;;21.41;65.51;100160.91;7283404;19;153690;-57
2022/10/21 00:59:32;;;;;;;;;;;;;;;21.41;65.54;100160.91;7287258;19;151780;-56
2022/10/21 01:01:59;;;;;;;;;;;;;;;21.41;65.56;100155.28;7291435;19;152751;-56
2022/10/21 01:04:26;;;;;;;;;;;;;;;21.40;65.32;100150.81;7286940;19;152476;-56
2022/10/21 01:06:53;;;;;;;;;;;;;;;21.41;65.16;100156.13;7285222;19;152081;-57
2022/10/21 01:09:20;;;;;;;;;;;;;;;21.40;65.05;100143.22;7283766;19;152423;-56
2022/10/21 01:11:48;;;;;;;;;;;;;;;21.39;65.32;100141.59;7283711;19;151991;-56
2022/10/21 01:14:30;;;;;;;;;;;;;;;21.39;65.38;100155.63;7284918;19;152914;-56
2022/10/21 01:17:02;;;;;;;;;;;;;;;21.38;65.70;100156.78;7285031;19;152332;-56
2022/10/21 01:19:49;;;;;;;;;;;;;;;21.39;65.49;100157.63;7287442;19;153228;-56
2022/10/21 01:22:18;;;;;;;;;;;;;;;21.39;65.59;100157.63;7286516;19;153491;-56
2022/10/21 01:24:48;;;;;;;;;;;;;;;21.38;65.67;100145.56;7292983;19;154690;-56
2022/10/21 01:27:19;;;;;;;;;;;;;;;21.38;65.71;100136.28;7284414;19;153272;-56
2022/10/21 01:30:07;;;;;;;;;;;;;;;21.36;65.68;100139.44;7283533;19;154724;-56
2022/10/21 01:32:40;;;;;;;;;;;;;;;21.36;65.94;100116.94;7286166;19;151854;-56
2022/10/21 01:35:21;;;;;;;;;;;;;;;21.36;65.96;100104.88;7286469;19;153211;-56
2022/10/21 01:38:06;;;;;;;;;;;;;;;21.34;65.77;100077.13;7284748;19;154978;-56
2022/10/21 01:40:56;;;;;;;;;;;;;;;21.33;65.52;100072.66;7286868;19;151849;-57
2022/10/21 01:43:36;;;;;;;;;;;;;;;21.31;65.73;100077.78;7283003;19;153488;-57
2022/10/21 01:46:10;;;;;;;;;;;;;;;21.31;65.80;100091.84;7284185;19;154004;-57
2022/10/21 01:48:42;;;;;;;;;;;;;;;21.30;65.88;100079.75;7294851;19;152217;-57
2022/10/21 01:51:09;;;;;;;;;;;;;;;21.30;65.74;100071.34;7282141;19;153056;-58
2022/10/21 01:53:56;;;;;;;;;;;;;;;21.30;65.82;100073.34;7285939;19;153249;-57
2022/10/21 01:56:24;;;;;;;;;;;;;;;21.28;65.65;100070.88;7283109;19;153595;-56
2022/10/21 01:58:52;;;;;;;;;;;;;;;21.30;66.02;100059.28;7285289;19;153350;-57
2022/10/21 02:01:19;;;;;;;;;;;;;;;21.32;65.66;100064.56;7285101;19;151997;-57
2022/10/21 02:03:49;;;;;;;;;;;;;;;21.30;65.70;100067.72;7285974;19;152821;-57
2022/10/21 02:06:15;;;;;;;;;;;;;;;21.32;66.13;100071.00;7281276;19;153390;-57
2022/10/21 02:08:42;;;;;;;;;;;;;;;21.30;65.86;100079.75;7286264;19;151685;-57
2022/10/21 02:11:10;;;;;;;;;;;;;;;21.30;65.61;100084.59;7287397;19;152661;-56
2022/10/21 02:13:41;;;;;;;;;;;;;;;21.28;65.54;100070.88;7283943;19;151862;-57
2022/10/21 02:16:09;;;;;;;;;;;;;;;21.27;65.54;100048.72;7284317;19;152074;-56
2022/10/21 02:18:36;;;;;;;;;;;;;;;21.26;65.89;100033.84;7284793;19;154229;-57
2022/10/21 02:21:08;;;;;;;;;;;;;;;21.26;66.01;100022.59;7284502;19;151497;-57
2022/10/21 02:23:38;;;;;;;;;;;;;;;21.28;66.06;100019.47;7285299;19;151682;-57
2022/10/21 02:26:05;;;;;;;;;;;;;;;21.28;65.82;100020.28;7279369;19;154308;-57
2022/10/21 02:28:32;;;;;;;;;;;;;;;21.28;66.04;100027.88;7284324;19;151592;-57
2022/10/21 02:31:05;;;;;;;;;;;;;;;21.26;66.02;100033.00;7284608;19;153336;-57
2022/10/21 02:33:39;;;;;;;;;;;;;;;21.25;66.15;100014.53;7287000;19;152430;-57
2022/10/21 02:36:09;;;;;;;;;;;;;;;21.25;66.19;100014.53;7282508;19;152682;-56
2022/10/21 02:38:39;;;;;;;;;;;;;;;21.26;65.74;100033.00;7282404;19;153642;-57
2022/10/21 02:41:09;;;;;;;;;;;;;;;21.24;65.76;100013.69;7282011;19;151918;-56
2022/10/21 02:43:38;;;;;;;;;;;;;;;21.22;66.18;100017.97;7281185;19;153501;-57
2022/10/21 02:46:07;;;;;;;;;;;;;;;21.22;65.99;100026.41;7282959;19;154155;-57
2022/10/21 02:48:34;;;;;;;;;;;;;;;21.21;66.26;100025.59;7285801;19;151997;-56
2022/10/21 02:51:02;;;;;;;;;;;;;;;21.22;66.01;100043.25;7283705;19;153514;-56
2022/10/21 02:53:29;;;;;;;;;;;;;;;21.21;66.31;100044.44;7289604;19;153369;-56
2022/10/21 02:55:55;;;;;;;;;;;;;;;21.18;66.36;100034.69;7281944;19;153563;-56
2022/10/21 02:58:22;;;;;;;;;;;;;;;21.17;66.53;100030.22;7281966;19;153471;-56
2022/10/21 03:00:49;;;;;;;;;;;;;;;21.18;66.26;100033.88;7283751;19;151976;-56
2022/10/21 03:03:17;;;;;;;;;;;;;;;21.16;66.49;100019.34;7283809;19;153304;-56
2022/10/21 03:05:43;;;;;;;;;;;;;;;21.17;66.01;99995.69;7283349;19;152459;-55
2022/10/21 03:08:10;;;;;;;;;;;;;;;21.17;66.41;99964.78;7283776;19;151876;-56
2022/10/21 03:10:37;;;;;;;;;;;;;;;21.15;66.57;99948.28;7284798;19;153106;-57
2022/10/21 03:13:03;;;;;;;;;;;;;;;21.17;66.10;99961.97;7278930;19;153951;-56
2022/10/21 03:15:30;;;;;;;;;;;;;;;21.17;66.19;99978.84;7287946;19;152569;-57
2022/10/21 03:17:57;;;;;;;;;;;;;;;21.16;66.44;99974.41;7282194;19;152736;-56
2022/10/21 03:20:23;;;;;;;;;;;;;;;21.17;66.45;99968.44;7283133;19;153185;-56
2022/10/21 03:22:50;;;;;;;;;;;;;;;21.15;66.50;99979.19;7283929;19;152841;-56
2022/10/21 03:25:17;;;;;;;;;;;;;;;21.16;66.37;99983.66;7282355;19;153564;-56
2022/10/21 03:27:43;;;;;;;;;;;;;;;21.15;66.51;99986.78;7279678;19;152186;-56
2022/10/21 03:30:10;;;;;;;;;;;;;;;21.16;66.74;99986.47;7282248;19;152080;-56
2022/10/21 03:32:37;;;;;;;;;;;;;;;21.15;66.73;99979.19;7282122;19;154460;-57
2022/10/21 03:35:04;;;;;;;;;;;;;;;21.15;66.79;99973.56;7280728;19;152614;-57
2022/10/21 03:37:31;;;;;;;;;;;;;;;21.14;66.51;99969.09;7289442;19;152669;-57
2022/10/21 03:39:57;;;;;;;;;;;;;;;21.15;66.52;99972.75;7283274;19;152579;-57
2022/10/21 03:42:24;;;;;;;;;;;;;;;21.15;66.49;99962.34;7277291;19;152667;-56
2022/10/21 03:44:51;;;;;;;;;;;;;;;21.14;66.93;99951.44;7282249;19;153367;-57
2022/10/21 03:47:17;;;;;;;;;;;;;;;21.14;66.83;99945.81;7280910;19;151973;-57
2022/10/21 03:49:44;;;;;;;;;;;;;;;21.14;66.92;99943.00;7278177;19;152101;-57
2022/10/21 03:52:10;;;;;;;;;;;;;;;21.14;67.14;99943.00;7279243;19;152446;-57
2022/10/21 03:54:37;;;;;;;;;;;;;;;21.13;67.22;99950.59;7281184;19;152271;-56
2022/10/21 03:57:04;;;;;;;;;;;;;;;21.14;67.24;99951.44;7278507;19;152116;-57
2022/10/21 03:59:30;;;;;;;;;;;;;;;21.14;67.08;99940.19;7289973;19;153455;-57
2022/10/21 04:01:57;;;;;;;;;;;;;;;21.13;67.33;99941.34;7282000;19;153561;-57
2022/10/21 04:04:24;;;;;;;;;;;;;;;21.13;67.08;99932.91;7279118;19;152326;-56
2022/10/21 04:06:50;;;;;;;;;;;;;;;21.11;67.15;99927.63;7281680;19;152239;-57
2022/10/21 04:09:17;;;;;;;;;;;;;;;21.12;67.28;99920.81;7282108;19;152202;-57
2022/10/21 04:11:44;;;;;;;;;;;;;;;21.12;67.48;99909.59;7277630;19;152663;-57
2022/10/21 04:14:11;;;;;;;;;;;;;;;21.12;67.29;99912.41;7285663;19;152410;-57
2022/10/21 04:16:40;;;;;;;;;;;;;;;21.13;67.61;99921.69;7288983;19;153280;-57
2022/10/21 04:19:07;;;;;;;;;;;;;;;21.13;67.08;99921.69;7286978;19;153172;-57
2022/10/21 04:21:34;;;;;;;;;;;;;;;21.11;67.52;99922.00;7296047;19;151676;-58
2022/10/21 04:24:01;;;;;;;;;;;;;;;21.12;67.18;99911.59;7284971;19;154455;-57
2022/10/21 04:26:27;;;;;;;;;;;;;;;21.12;67.25;99908.78;7285117;19;151867;-57
2022/10/21 04:28:54;;;;;;;;;;;;;;;21.11;67.13;99905.16;7287765;19;152816;-56
2022/10/21 04:31:21;;;;;;;;;;;;;;;21.11;67.54;99910.78;7286763;19;154058;-57
2022/10/21 04:33:48;;;;;;;;;;;;;;;21.12;67.44;99932.06;7288488;19;152042;-56
2022/10/21 04:36:15;;;;;;;;;;;;;;;21.10;67.63;99925.97;7288382;19;152598;-57
2022/10/21 04:38:42;;;;;;;;;;;;;;;21.09;67.44;99929.94;7286459;19;152282;-56
2022/10/21 04:41:08;;;;;;;;;;;;;;;21.10;67.42;99933.56;7293374;19;152346;-56
2022/10/21 04:43:35;;;;;;;;;;;;;;;21.09;67.36;99927.13;7286063;19;154249;-56
2022/10/21 04:46:02;;;;;;;;;;;;;;;21.08;67.59;99916.22;7286950;19;151846;-56
2022/10/21 04:48:34;;;;;;;;;;;;;;;21.09;67.44;99920.69;7288480;19;152818;-57
2022/10/21 04:51:00;;;;;;;;;;;;;;;21.08;67.74;99916.22;7286169;19;153091;-56
2022/10/21 04:53:27;;;;;;;;;;;;;;;21.07;67.44;99921.03;7285473;19;152002;-56
2022/10/21 04:55:54;;;;;;;;;;;;;;;21.06;67.50;99912.94;7284403;19;151767;-56
2022/10/21 04:58:24;;;;;;;;;;;;;;;21.06;67.94;99916.56;7284857;19;154066;-56
2022/10/21 05:00:50;;;;;;;;;;;;;;;21.05;67.66;99908.47;7287934;19;151940;-56
2022/10/21 05:03:18;;;;;;;;;;;;;;;21.05;67.64;99916.91;7293404;19;153509;-56
2022/10/21 05:05:44;;;;;;;;;;;;;;;21.04;67.93;99910.47;7287720;19;152669;-57
2022/10/21 05:08:11;;;;;;;;;;;;;;;21.04;67.94;99907.66;7287608;19;153394;-57
2022/10/21 05:10:38;;;;;;;;;;;;;;;21.04;68.11;99912.44;7283070;19;152315;-57
2022/10/21 05:13:05;;;;;;;;;;;;;;;21.02;67.89;99907.19;7283379;19;151740;-56
2022/10/21 05:15:32;;;;;;;;;;;;;;;21.03;67.85;99894.75;7282915;19;152275;-57
2022/10/21 05:17:58;;;;;;;;;;;;;;;21.03;67.66;99899.59;7286323;19;153748;-57
2022/10/21 05:20:25;;;;;;;;;;;;;;;21.01;68.10;99902.72;7286951;19;151582;-57
2022/10/21 05:22:52;;;;;;;;;;;;;;;21.01;67.90;99902.72;7286803;19;153376;-57
2022/10/21 05:25:19;;;;;;;;;;;;;;;21.01;67.90;99902.72;7292385;19;153333;-57
2022/10/21 05:27:47;;;;;;;;;;;;;;;21.01;68.15;99902.72;7280901;19;152017;-57
2022/10/21 05:30:13;;;;;;;;;;;;;;;21.01;67.73;99901.88;7285099;19;152770;-57
2022/10/21 05:32:40;;;;;;;;;;;;;;;21.00;68.27;99894.63;7285478;19;152387;-58
2022/10/21 05:35:07;;;;;;;;;;;;;;;20.98;68.23;99894.97;7285995;19;152949;-57
2022/10/21 05:37:35;;;;;;;;;;;;;;;20.99;68.11;99896.59;7284414;19;153305;-57
2022/10/21 05:40:03;;;;;;;;;;;;;;;20.99;67.99;99888.19;7285523;19;152117;-57
2022/10/21 05:42:30;;;;;;;;;;;;;;;20.99;68.00;99892.97;7282597;19;153438;-57
2022/10/21 05:44:56;;;;;;;;;;;;;;;20.98;68.24;99886.56;7284416;19;154466;-57
2022/10/21 05:47:23;;;;;;;;;;;;;;;20.99;68.24;99888.19;7294168;19;151840;-57
2022/10/21 05:49:50;;;;;;;;;;;;;;;21.01;68.06;99873.81;7284626;19;154108;-57
2022/10/21 05:52:16;;;;;;;;;;;;;;;21.04;68.19;99871.13;7285044;19;151704;-56
2022/10/21 05:54:43;;;;;;;;;;;;;;;21.06;68.06;99862.38;7285117;19;151989;-56
2022/10/21 05:57:10;;;;;;;;;;;;;;;21.11;68.50;99859.38;7280708;19;153943;-57
2022/10/21 05:59:36;;;;;;;;;;;;;;;21.16;69.01;99874.09;7285587;19;153156;-56
2022/10/21 06:02:03;;;;;;;;;;;;;;;21.22;68.75;99885.94;7285484;19;152251;-56
2022/10/21 06:04:29;;;;;;;;;;;;;;;21.26;68.93;99886.91;7281969;19;152427;-57
2022/10/21 06:07:03;;;;;;;;;;;;;;;21.31;69.08;99889.53;7283998;19;152420;-56
2022/10/21 06:09:29;;;;;;;;;;;;;;;21.37;69.24;99884.53;7293126;19;153401;-57
2022/10/21 06:11:56;;;;;;;;;;;;;;;21.43;69.18;99886.00;7281694;19;152626;-57
2022/10/21 06:14:24;;;;;;;;;;;;;;;21.49;68.94;99887.44;7286144;19;152799;-57
2022/10/21 06:16:50;;;;;;;;;;;;;;;21.54;69.30;99885.25;7285423;19;154187;-57
2022/10/21 06:19:17;;;;;;;;;;;;;;;21.61;69.37;99876.28;7286000;19;151648;-57
2022/10/21 06:21:44;;;;;;;;;;;;;;;21.66;69.25;99876.91;7284004;19;153429;-57
2022/10/21 06:24:10;;;;;;;;;;;;;;;21.72;68.94;99883.13;7283153;19;152288;-56
2022/10/21 06:26:37;;;;;;;;;;;;;;;21.77;69.20;99874.50;7282063;19;151844;-58
2022/10/21 06:29:03;;;;;;;;;;;;;;;21.86;68.99;99886.50;7282340;19;151980;-58
2022/10/21 06:31:30;;;;;;;;;;;;;;;21.89;68.28;99894.28;7289743;19;154174;-58
2022/10/21 06:33:57;;;;;;;;;;;;;;;21.91;68.15;99900.34;7283987;19;151934;-58
2022/10/21 06:36:23;;;;;;;;;;;;;;;21.94;67.67;99902.50;7280074;19;153459;-58
2022/10/21 06:38:50;;;;;;;;;;;;;;;21.98;67.89;99919.53;7281389;19;151971;-58
2022/10/21 06:41:17;;;;;;;;;;;;;;;22.00;67.56;99920.84;7280956;19;151914;-58
2022/10/21 06:43:44;;;;;;;;;;;;;;;22.04;67.23;99923.78;7282408;19;154436;-58
2022/10/21 06:46:15;;;;;;;;;;;;;;;22.06;67.19;99899.78;7284276;19;151890;-58
2022/10/21 06:48:41;;;;;;;;;;;;;;;22.05;66.62;99914.16;7284928;19;153256;-58
2022/10/21 06:51:11;;;;;;;;;;;;;;;21.98;65.81;99926.00;7290520;19;154380;-58
2022/10/21 06:53:38;;;;;;;;;;;;;;;21.93;65.18;99923.38;7282904;19;153160;-57
2022/10/21 06:56:12;;;;;;;;;;;;;;;22.03;65.25;99916.53;7278263;19;153774;-58
2022/10/21 06:58:45;;;;;;;;;;;;;;;22.02;64.91;99912.88;7281637;19;151651;-58
2022/10/21 07:01:13;;;;;;;;;;;;;;;22.01;64.65;99911.22;7282961;19;152848;-58
2022/10/21 07:04:00;;;;;;;;;;;;;;;22.01;64.33;99925.28;7279452;19;155248;-58
2022/10/21 07:06:26;;;;;;;;;;;;;;;22.02;64.56;99926.13;7283211;19;152355;-58
2022/10/21 07:08:53;;;;;;;;;;;;;;;22.01;64.28;99924.47;7283686;19;153642;-58
2022/10/21 07:11:24;;;;;;;;;;;;;;;22.00;64.18;99936.88;7279609;19;153979;-58
2022/10/21 07:13:51;;;;;;;;;;;;;;;21.98;63.88;99945.69;7289756;19;151652;-58
2022/10/21 07:16:24;;;;;;;;;;;;;;;21.99;63.76;99940.84;7279044;19;153878;-58
2022/10/21 07:18:50;;;;;;;;;;;;;;;22.00;63.71;99928.44;7284106;19;151959;-57
2022/10/21 07:21:18;;;;;;;;;;;;;;;22.00;63.11;99926.47;7283386;19;152645;-57
2022/10/21 07:23:45;;;;;;;;;;;;;;;21.96;62.55;99919.88;7281951;19;153669;-57
2022/10/21 07:26:13;;;;;;;;;;;;;;;21.92;62.59;99932.94;7279385;19;152543;-57
2022/10/21 07:28:40;;;;;;;;;;;;;;;21.85;62.61;99926.22;7282548;19;153428;-57
2022/10/21 07:31:07;;;;;;;;;;;;;;;21.89;63.60;99932.81;7280801;19;152356;-59
2022/10/21 07:33:34;;;;;;;;;;;;;;;21.91;63.39;99942.53;7282592;19;152583;-57
2022/10/21 07:36:03;;;;;;;;;;;;;;;21.92;63.58;99949.00;7286580;19;154401;-57
2022/10/21 07:38:32;;;;;;;;;;;;;;;21.93;63.62;99945.06;7285485;19;152675;-57
2022/10/21 07:40:59;;;;;;;;;;;;;;;21.93;63.11;99942.25;7280043;19;152053;-57
2022/10/21 07:43:26;;;;;;;;;;;;;;;21.94;63.33;99946.72;7280029;19;153819;-57
2022/10/21 07:45:53;;;;;;;;;;;;;;;21.93;63.56;99939.44;7280635;19;151673;-57
2022/10/21 07:48:25;;;;;;;;;;;;;;;21.94;63.19;99952.34;7285968;19;153140;-59
2022/10/21 07:50:52;;;;;;;;;;;;;;;21.94;63.61;99947.50;7286559;19;152514;-56
2022/10/21 07:53:20;;;;;;;;;;;;;;;21.95;63.68;99954.78;7289082;19;151929;-57
2022/10/21 07:55:47;;;;;;;;;;;;;;;21.93;63.57;99948.69;7287097;19;153716;-57
2022/10/21 07:58:23;;;;;;;;;;;;;;;21.94;63.46;99946.72;7291442;19;154486;-57
2022/10/21 08:00:49;;;;;;;;;;;;;;;21.96;63.17;99945.19;7288554;19;153387;-57
2022/10/21 08:03:16;;;;;;;;;;;;;;;21.96;63.13;99948.00;7287957;19;153947;-57
2022/10/21 08:05:43;;;;;;;;;;;;;;;21.97;63.36;99949.66;7289104;19;151864;-57
2022/10/21 08:08:10;;;;;;;;;;;;;;;21.97;63.13;99949.66;7287634;19;153600;-57
2022/10/21 08:10:40;;;;;;;;;;;;;;;21.97;63.12;99946.00;7287766;19;154493;-57
2022/10/21 08:13:07;;;;;;;;;;;;;;;21.98;63.23;99950.47;7285391;19;152247;-57
2022/10/21 08:15:34;;;;;;;;;;;;;;;21.97;63.20;99951.63;7287188;19;152928;-57
2022/10/21 08:18:00;;;;;;;;;;;;;;;21.98;63.10;99947.66;7286478;19;153855;-57
2022/10/21 08:20:27;;;;;;;;;;;;;;;21.98;62.66;99948.50;7295993;19;152081;-57
2022/10/21 08:22:53;;;;;;;;;;;;;;;21.98;62.97;99953.28;7286171;19;152664;-57
2022/10/21 08:25:20;;;;;;;;;;;;;;;21.97;62.51;99951.63;7288864;19;152235;-57
2022/10/21 08:27:47;;;;;;;;;;;;;;;21.96;62.80;99962.06;7283785;19;153873;-57
2022/10/21 08:30:14;;;;;;;;;;;;;;;21.95;62.95;99968.03;7287762;19;154208;-57
2022/10/21 08:32:41;;;;;;;;;;;;;;;21.94;62.48;99960.78;7286527;19;152219;-57
2022/10/21 08:35:08;;;;;;;;;;;;;;;21.93;62.48;99962.75;7288143;19;152426;-58
2022/10/21 08:37:35;;;;;;;;;;;;;;;21.92;62.53;99955.44;7283498;19;152979;-58
2022/10/21 08:40:02;;;;;;;;;;;;;;;21.91;62.70;99950.97;7287757;19;152497;-57
2022/10/21 08:42:29;;;;;;;;;;;;;;;21.91;62.63;99950.16;7290911;19;152792;-58
2022/10/21 08:44:59;;;;;;;;;;;;;;;21.90;62.77;99945.69;7288540;19;151846;-58
2022/10/21 08:47:32;;;;;;;;;;;;;;;21.88;62.85;99948.88;7285924;19;152797;-57
2022/10/21 08:50:12;;;;;;;;;;;;;;;21.88;62.76;99953.66;7284463;19;152766;-58
2022/10/21 08:52:41;;;;;;;;;;;;;;;21.87;63.00;99949.19;7287129;19;151982;-57
2022/10/21 08:55:16;;;;;;;;;;;;;;;21.86;62.95;99955.97;7287875;19;153023;-58
2022/10/21 08:57:42;;;;;;;;;;;;;;;21.85;62.75;99943.91;7278370;19;152426;-57
2022/10/21 09:00:20;;;;;;;;;;;;;;;21.85;62.52;99948.72;7287249;19;152005;-57
2022/10/21 09:02:46;;;;;;;;;;;;;;;21.83;62.68;99948.22;7293745;19;151923;-57
2022/10/21 09:05:37;;;;;;;;;;;;;;;21.83;62.90;99948.22;7285511;19;152239;-58
2022/10/21 09:08:14;;;;;;;;;;;;;;;21.82;62.50;99946.59;7284794;19;153443;-57
2022/10/21 09:11:14;;;;;;;;;;;;;;;21.82;62.55;99955.00;7283151;19;154932;-57
2022/10/21 09:13:59;;;;;;;;;;;;;;;21.83;62.55;99948.22;7287696;19;151967;-57
2022/10/21 09:16:26;;;;;;;;;;;;;;;21.82;62.50;99943.75;7285562;19;151734;-57
2022/10/21 09:19:11;;;;;;;;;;;;;;;21.82;62.70;99946.59;7285713;19;154195;-57
2022/10/21 09:21:56;;;;;;;;;;;;;;;21.81;62.60;99953.38;7286680;19;151628;-57
2022/10/21 09:24:51;;;;;;;;;;;;;;;21.78;62.55;99949.25;7287642;19;153469;-57
2022/10/21 09:27:19;;;;;;;;;;;;;;;21.79;62.97;99955.72;7288991;19;152704;-58
2022/10/21 09:30:05;;;;;;;;;;;;;;;21.77;62.60;99949.59;7286898;19;153353;-58
2022/10/21 09:32:34;;;;;;;;;;;;;;;21.76;62.79;99940.31;7284770;19;154450;-57
2022/10/21 09:35:07;;;;;;;;;;;;;;;21.73;62.92;99944.66;7286354;19;151848;-57
2022/10/21 09:37:36;;;;;;;;;;;;;;;21.73;62.74;99947.47;7283096;19;153346;-57
2022/10/21 09:40:20;;;;;;;;;;;;;;;21.71;63.04;99944.16;7284461;19;152326;-57
2022/10/21 09:42:51;;;;;;;;;;;;;;;21.72;62.67;99943.00;7282123;19;151953;-58
2022/10/21 09:45:22;;;;;;;;;;;;;;;21.73;62.48;99943.84;7286286;19;152074;-57
2022/10/21 09:48:04;;;;;;;;;;;;;;;21.71;62.65;99946.97;7283207;19;152389;-57
2022/10/21 09:50:32;;;;;;;;;;;;;;;21.70;62.43;99948.16;7293161;19;151997;-57
2022/10/21 09:53:19;;;;;;;;;;;;;;;21.70;62.81;99944.53;7284565;19;153226;-58
2022/10/21 09:55:57;;;;;;;;;;;;;;;21.70;62.38;99942.53;7284692;19;152828;-58
2022/10/21 09:58:48;;;;;;;;;;;;;;;21.69;62.36;99942.88;7282865;19;153169;-57
2022/10/21 10:01:16;;;;;;;;;;;;;;;21.66;62.61;99935.94;7283914;19;152785;-57
2022/10/21 10:03:44;;;;;;;;;;;;;;;21.65;62.60;99936.28;7285382;19;151559;-57
2022/10/21 10:06:11;;;;;;;;;;;;;;;21.65;62.35;99945.53;7284274;19;152766;-57
2022/10/21 10:08:40;;;;;;;;;;;;;;;21.64;62.75;99932.66;7282147;19;154110;-57
2022/10/21 10:11:09;;;;;;;;;;;;;;;21.63;62.70;99933.81;7278746;19;151646;-57
2022/10/21 10:13:38;;;;;;;;;;;;;;;21.63;62.44;99933.81;7292411;19;153773;-57
2022/10/21 10:16:12;;;;;;;;;;;;;;;21.61;62.54;99930.53;7283761;19;151649;-57
2022/10/21 10:18:39;;;;;;;;;;;;;;;21.61;62.33;99947.38;7285003;19;152739;-57
2022/10/21 10:21:09;;;;;;;;;;;;;;;21.58;62.76;99945.25;7282440;19;154160;-58
2022/10/21 10:24:05;;;;;;;;;;;;;;;21.58;62.75;99944.41;7285690;19;152125;-57
2022/10/21 10:26:35;;;;;;;;;;;;;;;21.55;62.40;99931.88;7280310;19;152399;-57
2022/10/21 10:29:18;;;;;;;;;;;;;;;21.54;62.77;99947.09;7283964;19;153941;-58
2022/10/21 10:31:46;;;;;;;;;;;;;;;21.53;62.39;99945.44;7284983;19;151903;-57
2022/10/21 10:34:21;;;;;;;;;;;;;;;21.52;62.89;99955.06;7285707;19;153443;-57
2022/10/21 10:36:49;;;;;;;;;;;;;;;21.53;62.57;99955.88;7289971;19;153773;-57
2022/10/21 10:39:20;;;;;;;;;;;;;;;21.53;62.82;99956.69;7285194;19;152208;-58
2022/10/21 10:41:48;;;;;;;;;;;;;;;21.55;63.14;99951.56;7280626;19;153918;-57
2022/10/21 10:44:24;;;;;;;;;;;;;;;21.58;63.37;99967.72;7283100;19;151898;-57
2022/10/21 10:46:55;;;;;;;;;;;;;;;21.64;63.25;99949.50;7284640;19;152787;-58
2022/10/21 10:49:22;;;;;;;;;;;;;;;21.69;62.79;99946.50;7283879;19;154361;-57
2022/10/21 10:52:03;;;;;;;;;;;;;;;21.71;63.19;99951.81;7284636;19;152725;-57
2022/10/21 10:54:30;;;;;;;;;;;;;;;21.76;63.00;99945.16;7282513;19;152188;-58
2022/10/21 10:56:56;;;;;;;;;;;;;;;21.78;63.08;99946.44;7278070;19;152375;-58
2022/10/21 10:59:23;;;;;;;;;;;;;;;21.81;63.38;99945.75;7290920;19;151621;-58
2022/10/21 11:01:59;;;;;;;;;;;;;;;21.87;63.13;99946.38;7281988;19;153527;-57
2022/10/21 11:04:34;;;;;;;;;;;;;;;21.91;63.00;99945.34;7281336;19;151767;-57
2022/10/21 11:07:13;;;;;;;;;;;;;;;21.96;63.01;99945.19;7283578;19;152857;-57
2022/10/21 11:09:43;;;;;;;;;;;;;;;22.03;62.63;99950.28;7278824;19;151897;-57
2022/10/21 11:12:19;;;;;;;;;;;;;;;22.07;62.83;99940.81;7279845;19;151818;-57
2022/10/21 11:14:50;;;;;;;;;;;;;;;22.13;62.60;99945.03;7284037;19;153078;-58
2022/10/21 11:17:21;;;;;;;;;;;;;;;22.18;62.38;99941.19;7280807;19;154714;-58
2022/10/21 11:19:51;;;;;;;;;;;;;;;22.23;62.47;99940.16;7292079;19;152469;-57
2022/10/21 11:22:21;;;;;;;;;;;;;;;22.27;61.89;99939.13;7281395;19;154429;-58
2022/10/21 11:25:01;;;;;;;;;;;;;;;22.31;62.07;99961.78;7284082;19;152123;-57
2022/10/21 11:27:28;;;;;;;;;;;;;;;22.34;61.83;99950.66;7278387;19;152722;-57
2022/10/21 11:30:01;;;;;;;;;;;;;;;22.38;61.65;99936.72;7282022;19;152178;-58
2022/10/21 11:32:33;;;;;;;;;;;;;;;22.41;61.53;99950.91;7282163;19;151913;-58
2022/10/21 11:35:03;;;;;;;;;;;;;;;22.45;61.19;99929.34;7283415;19;153228;-57
2022/10/21 11:37:29;;;;;;;;;;;;;;;22.49;61.14;99933.13;7279085;19;152497;-57
2022/10/21 11:39:56;;;;;;;;;;;;;;;22.52;61.35;99935.25;7283241;19;151961;-57
2022/10/21 11:42:30;;;;;;;;;;;;;;;22.56;61.39;99933.41;7284029;19;152298;-58
2022/10/21 11:45:15;;;;;;;;;;;;;;;22.59;61.19;99932.69;7283104;19;151884;-57
2022/10/21 11:47:48;;;;;;;;;;;;;;;22.63;60.93;99924.38;7281078;19;152254;-57
2022/10/21 11:50:23;;;;;;;;;;;;;;;22.68;60.91;99934.59;7280330;19;153413;-58
2022/10/21 11:53:11;;;;;;;;;;;;;;;22.70;60.80;99923.84;7281284;19;151858;-58
2022/10/21 11:55:41;;;;;;;;;;;;;;;22.72;60.66;99922.31;7281418;19;153252;-58
2022/10/21 11:58:26;;;;;;;;;;;;;;;22.73;60.48;99923.13;7274496;19;154078;-57
2022/10/21 12:01:22;;;;;;;;;;;;;;;22.76;60.15;99922.47;7281807;19;152440;-57
2022/10/21 12:04:14;;;;;;;;;;;;;;;22.77;60.25;99912.81;7282014;19;152057;-58
2022/10/21 12:06:55;;;;;;;;;;;;;;;22.80;60.11;99912.16;7287501;19;153085;-58
2022/10/21 12:09:42;;;;;;;;;;;;;;;22.80;59.76;99907.34;7280816;19;153213;-57
2022/10/21 12:12:11;;;;;;;;;;;;;;;22.82;59.69;99906.97;7275493;19;153554;-58
2022/10/21 12:14:45;;;;;;;;;;;;;;;22.84;60.01;99910.28;7281770;19;152139;-58
2022/10/21 12:17:15;;;;;;;;;;;;;;;22.85;59.72;99903.47;7281242;19;153201;-57
2022/10/21 12:19:46;;;;;;;;;;;;;;;22.85;59.57;99909.91;7279005;19;154198;-58
2022/10/21 12:22:13;;;;;;;;;;;;;;;22.86;59.62;99916.34;7280873;19;151999;-58
2022/10/21 12:24:45;;;;;;;;;;;;;;;22.85;59.33;99923.19;7280908;19;153819;-57
2022/10/21 12:27:30;;;;;;;;;;;;;;;22.86;59.48;99930.44;7274552;19;154173;-58
2022/10/21 12:30:09;;;;;;;;;;;;;;;22.85;59.05;99921.16;7288552;19;151599;-57
2022/10/21 12:32:41;;;;;;;;;;;;;;;22.84;59.12;99913.91;7278405;19;153561;-57
2022/10/21 12:35:12;;;;;;;;;;;;;;;22.85;58.91;99909.09;7286028;19;151957;-57
2022/10/21 12:37:51;;;;;;;;;;;;;;;22.83;59.37;99909.44;7286188;19;153344;-58
2022/10/21 12:40:26;;;;;;;;;;;;;;;22.82;59.03;99919.06;7287209;19;153452;-58
2022/10/21 12:42:58;;;;;;;;;;;;;;;22.83;59.10;99914.25;7283134;19;151950;-58
2022/10/21 12:45:29;;;;;;;;;;;;;;;22.84;58.97;99894.19;7288228;19;153390;-57
2022/10/21 12:47:56;;;;;;;;;;;;;;;22.83;58.99;99903.81;7287675;19;153784;-57
2022/10/21 12:50:31;;;;;;;;;;;;;;;22.83;59.17;99902.97;7288081;19;151739;-58